Time;durP1;ratioP1;P1;durP2;ratioP2;P2;SDS_P1;SDS_P2;PMS_P1;PMS_P2;Temp;Humidity;BMP_temperature;BMP_pressure;BME280_temperature;BME280_humidity;BME280_pressure;Samples;Min_cycle;Max_cycle;Signal;HPM_P1;HPM_P2
2023/06/08 00:02:57;;;;;;;;;;;;;;;;;;5091458;27;19917;-68
2023/06/08 00:07:37;;;;;;;;;;;;;;;;;;5091421;27;20283;-68
2023/06/08 00:14:38;;;;;;;;;;;;;;;;;;5092101;27;19938;-68
2023/06/08 00:19:17;;;;;;;;;;;;;;;;;;5091621;27;19923;-69
2023/06/08 00:26:21;;;;;;;;;;;;;;;;;;5092121;27;19916;-68
2023/06/08 00:30:24;;;;;;;;;;;;;;;;;;5091442;27;19920;-68
2023/06/08 00:36:29;;;;;;;;;;;;;;;;;;5092301;28;19923;-68
2023/06/08 00:38:55;;;;;;;;;;;;;;;;;;5091158;28;20003;-68
2023/06/08 00:43:04;;;;;;;;;;;;;;;;;;5153872;27;19916;-68
2023/06/08 00:45:30;;;;;;;;;;;;;;;;;;5152486;27;19911;-68
2023/06/08 00:47:56;;;;;;;;;;;;;;;;;;5153125;27;20009;-68
2023/06/08 00:50:23;;;;;;;;;;;;;;;;;;5134298;27;19907;-68
2023/06/08 00:52:49;;;;;;;;;;;;;;;;;;5152325;27;19990;-68
2023/06/08 00:55:19;;;;;;;;;;;;;;;;;;5152721;27;19908;-68
2023/06/08 00:58:52;;;;;;;;;;;;;;;;;;5111715;27;19916;-68
2023/06/08 01:02:04;;;;;;;;;;;;;;;;;;5091413;28;19938;-69
2023/06/08 01:04:31;;;;;;;;;;;;;;;;;;5091415;28;20003;-68
2023/06/08 01:06:58;;;;;;;;;;;;;;;;;;5090925;28;19909;-69
2023/06/08 01:09:24;;;;;;;;;;;;;;;;;;5091303;28;20287;-69
2023/06/08 01:13:08;;;;;;;;;;;;;;;;;;5091319;27;20277;-68
2023/06/08 01:15:34;;;;;;;;;;;;;;;;;;5091399;28;19912;-68
2023/06/08 01:19:28;;;;;;;;;;;;;;;;;;5091264;27;19917;-68
2023/06/08 01:23:37;;;;;;;;;;;;;;;;;;5092348;27;19934;-68
2023/06/08 01:27:36;;;;;;;;;;;;;;;;;;5091414;27;19938;-68
2023/06/08 01:31:11;;;;;;;;;;;;;;;;;;5091698;27;19916;-68
2023/06/08 01:33:37;;;;;;;;;;;;;;;;;;5089858;28;20003;-69
2023/06/08 01:36:03;;;;;;;;;;;;;;;;;;5091791;28;20015;-69
2023/06/08 01:39:40;;;;;;;;;;;;;;;;;;5091598;27;19916;-69
2023/06/08 01:42:06;;;;;;;;;;;;;;;;;;5091084;28;19912;-69
2023/06/08 01:44:32;;;;;;;;;;;;;;;;;;5091377;28;19909;-69
2023/06/08 01:49:25;;;;;;;;;;;;;;;;;;5091067;27;19913;-68
2023/06/08 01:53:01;;;;;;;;;;;;;;;;;;5112563;27;19916;-68
2023/06/08 01:55:29;;;;;;;;;;;;;;;;;;5111396;28;20415;-68
2023/06/08 02:00:23;;;;;;;;;;;;;;;;;;5091934;27;19967;-68
2023/06/08 02:02:49;;;;;;;;;;;;;;;;;;5091095;28;20432;-68
2023/06/08 02:05:16;;;;;;;;;;;;;;;;;;5091635;28;20344;-68
2023/06/08 02:07:42;;;;;;;;;;;;;;;;;;5091369;28;19908;-69
2023/06/08 02:10:07;;;;;;;;;;;;;;;;;;5090780;28;19962;-68
2023/06/08 02:13:22;;;;;;;;;;;;;;;;;;5091683;27;19918;-68
2023/06/08 02:15:48;;;;;;;;;;;;;;;;;;5091123;28;19999;-68
2023/06/08 02:18:14;;;;;;;;;;;;;;;;;;5091331;28;19908;-68
2023/06/08 02:20:40;;;;;;;;;;;;;;;;;;5091383;28;19908;-69
2023/06/08 02:25:31;;;;;;;;;;;;;;;;;;5091636;27;19917;-68
2023/06/08 02:27:57;;;;;;;;;;;;;;;;;;5091442;28;20342;-68
2023/06/08 02:30:23;;;;;;;;;;;;;;;;;;5089699;28;19908;-69
2023/06/08 02:32:53;;;;;;;;;;;;;;;;;;5091342;28;20265;-68
2023/06/08 02:35:19;;;;;;;;;;;;;;;;;;5091288;28;20319;-68
2023/06/08 02:37:46;;;;;;;;;;;;;;;;;;5090821;28;19908;-68
2023/06/08 02:40:12;;;;;;;;;;;;;;;;;;5091123;28;19919;-68
2023/06/08 02:42:38;;;;;;;;;;;;;;;;;;5091268;28;19909;-68
2023/06/08 02:45:03;;;;;;;;;;;;;;;;;;5090661;28;20042;-68
2023/06/08 02:47:30;;;;;;;;;;;;;;;;;;5089808;28;19908;-68
2023/06/08 02:49:56;;;;;;;;;;;;;;;;;;5089713;28;20386;-69
2023/06/08 02:52:22;;;;;;;;;;;;;;;;;;5090699;28;19995;-69
2023/06/08 02:54:48;;;;;;;;;;;;;;;;;;5090927;28;19915;-69
2023/06/08 02:57:14;;;;;;;;;;;;;;;;;;5090851;28;19997;-68
2023/06/08 02:59:41;;;;;;;;;;;;;;;;;;5089134;28;19908;-70
2023/06/08 03:02:08;;;;;;;;;;;;;;;;;;5090758;28;19912;-69
2023/06/08 03:06:05;;;;;;;;;;;;;;;;;;5152635;27;19937;-70
2023/06/08 03:10:09;;;;;;;;;;;;;;;;;;5091832;27;19917;-68
2023/06/08 03:12:35;;;;;;;;;;;;;;;;;;5091040;28;20279;-70
2023/06/08 03:15:01;;;;;;;;;;;;;;;;;;5090048;28;20064;-70
2023/06/08 03:17:27;;;;;;;;;;;;;;;;;;5091194;28;20409;-68
2023/06/08 03:20:51;;;;;;;;;;;;;;;;;;5152667;27;20274;-68
2023/06/08 03:23:19;;;;;;;;;;;;;;;;;;5153081;27;20002;-70
2023/06/08 03:30:55;;;;;;;;;;;;;;;;;;5112336;27;20295;-70
2023/06/08 03:33:21;;;;;;;;;;;;;;;;;;5111881;28;19998;-71
2023/06/08 03:35:48;;;;;;;;;;;;;;;;;;5111739;28;19947;-70
2023/06/08 03:38:14;;;;;;;;;;;;;;;;;;5111714;28;19908;-70
2023/06/08 03:40:40;;;;;;;;;;;;;;;;;;5111231;28;19993;-69
2023/06/08 03:43:05;;;;;;;;;;;;;;;;;;5111570;28;19908;-69
2023/06/08 03:45:31;;;;;;;;;;;;;;;;;;5110313;28;20367;-69
2023/06/08 03:47:57;;;;;;;;;;;;;;;;;;5111480;28;20371;-70
2023/06/08 03:50:23;;;;;;;;;;;;;;;;;;5111395;28;20295;-71
2023/06/08 03:52:49;;;;;;;;;;;;;;;;;;5111426;28;19908;-68
2023/06/08 03:55:16;;;;;;;;;;;;;;;;;;5110952;28;19912;-68
2023/06/08 03:58:24;;;;;;;;;;;;;;;;;;5091752;28;19916;-69
2023/06/08 04:00:49;;;;;;;;;;;;;;;;;;5091347;28;19951;-69
2023/06/08 04:03:15;;;;;;;;;;;;;;;;;;5090799;28;19944;-69
2023/06/08 04:05:41;;;;;;;;;;;;;;;;;;5091557;28;19917;-69
2023/06/08 04:08:07;;;;;;;;;;;;;;;;;;5090756;28;19915;-69
2023/06/08 04:12:35;;;;;;;;;;;;;;;;;;5091984;27;19923;-69
2023/06/08 04:17:27;;;;;;;;;;;;;;;;;;5091031;27;20406;-68
2023/06/08 04:19:53;;;;;;;;;;;;;;;;;;5091382;28;19917;-69
2023/06/08 04:22:20;;;;;;;;;;;;;;;;;;5090898;28;19912;-69
2023/06/08 04:24:46;;;;;;;;;;;;;;;;;;5091537;28;20368;-69
2023/06/08 04:27:34;;;;;;;;;;;;;;;;;;5091490;28;19912;-68
2023/06/08 04:34:04;;;;;;;;;;;;;;;;;;5090766;27;20406;-68
2023/06/08 04:36:31;;;;;;;;;;;;;;;;;;5090844;28;20334;-68
2023/06/08 04:41:55;;;;;;;;;;;;;;;;;;5091246;27;19916;-68
2023/06/08 04:45:23;;;;;;;;;;;;;;;;;;5090825;28;20304;-70
2023/06/08 04:47:51;;;;;;;;;;;;;;;;;;5089586;28;19919;-68
2023/06/08 04:50:18;;;;;;;;;;;;;;;;;;5087839;28;20536;-70
2023/06/08 04:55:01;;;;;;;;;;;;;;;;;;5089277;28;20284;-70
2023/06/08 04:57:27;;;;;;;;;;;;;;;;;;5088895;28;19969;-70
2023/06/08 04:59:53;;;;;;;;;;;;;;;;;;5089240;28;19913;-70
2023/06/08 05:02:19;;;;;;;;;;;;;;;;;;5090785;28;19915;-71
2023/06/08 05:04:44;;;;;;;;;;;;;;;;;;5089632;28;19912;-70
2023/06/08 05:07:10;;;;;;;;;;;;;;;;;;5091172;28;19951;-70
2023/06/08 05:16:50;;;;;;;;;;;;;;;;;;5091655;27;19939;-71
2023/06/08 05:21:13;;;;;;;;;;;;;;;;;;5152751;27;20018;-68
2023/06/08 05:23:39;;;;;;;;;;;;;;;;;;5152246;27;19911;-67
2023/06/08 05:27:27;;;;;;;;;;;;;;;;;;5088089;27;19923;-68
2023/06/08 05:29:52;;;;;;;;;;;;;;;;;;5089152;28;19912;-68
2023/06/08 05:32:20;;;;;;;;;;;;;;;;;;5090056;28;19915;-68
2023/06/08 05:34:46;;;;;;;;;;;;;;;;;;5086227;28;19912;-68
2023/06/08 05:37:14;;;;;;;;;;;;;;;;;;5088710;28;20420;-68
2023/06/08 05:39:40;;;;;;;;;;;;;;;;;;5087115;28;20310;-68
2023/06/08 05:43:35;;;;;;;;;;;;;;;;;;5088334;27;19916;-67
2023/06/08 05:46:01;;;;;;;;;;;;;;;;;;5088869;28;19921;-67
2023/06/08 05:50:20;;;;;;;;;;;;;;;;;;5087770;27;19923;-68
2023/06/08 05:52:46;;;;;;;;;;;;;;;;;;5087819;28;19912;-68
2023/06/08 05:55:11;;;;;;;;;;;;;;;;;;5088341;28;19909;-68
2023/06/08 05:58:32;;;;;;;;;;;;;;;;;;5085556;27;19920;-67
2023/06/08 06:04:40;;;;;;;;;;;;;;;;;;5088515;27;19912;-67
2023/06/08 06:08:00;;;;;;;;;;;;;;;;;;5149385;27;19911;-67
2023/06/08 06:12:43;;;;;;;;;;;;;;;;;;5088181;28;20240;-69
2023/06/08 06:19:48;;;;;;;;;;;;;;;;;;5080904;28;19917;-68
2023/06/08 06:22:15;;;;;;;;;;;;;;;;;;5059379;28;20384;-68
2023/06/08 06:24:41;;;;;;;;;;;;;;;;;;5077845;28;19909;-65
2023/06/08 06:27:07;;;;;;;;;;;;;;;;;;5070283;28;20004;-66
2023/06/08 06:29:33;;;;;;;;;;;;;;;;;;5068815;28;19913;-66
2023/06/08 06:31:59;;;;;;;;;;;;;;;;;;5056973;28;19919;-65
2023/06/08 06:35:57;;;;;;;;;;;;;;;;;;5108581;27;19922;-64
2023/06/08 06:39:34;;;;;;;;;;;;;;;;;;5103458;27;20280;-65
2023/06/08 06:43:27;;;;;;;;;;;;;;;;;;5090260;27;19922;-64
2023/06/08 06:45:53;;;;;;;;;;;;;;;;;;5089409;28;19930;-66
2023/06/08 06:48:19;;;;;;;;;;;;;;;;;;5090384;28;20343;-65
2023/06/08 06:50:45;;;;;;;;;;;;;;;;;;5090165;28;19908;-64
2023/06/08 06:55:09;;;;;;;;;;;;;;;;;;5088018;27;19912;-63
2023/06/08 06:57:37;;;;;;;;;;;;;;;;;;5085714;28;19920;-63
2023/06/08 07:00:08;;;;;;;;;;;;;;;;;;5081218;28;20334;-64
2023/06/08 07:02:33;;;;;;;;;;;;;;;;;;5065056;28;20390;-64
2023/06/08 07:10:32;;;;;;;;;;;;;;;;;;5107767;27;19923;-65
2023/06/08 07:12:58;;;;;;;;;;;;;;;;;;5107778;28;19919;-65
2023/06/08 07:17:17;;;;;;;;;;;;;;;;;;5089402;27;19923;-64
2023/06/08 07:19:45;;;;;;;;;;;;;;;;;;5087450;28;19913;-63
2023/06/08 07:22:11;;;;;;;;;;;;;;;;;;5083916;28;19956;-64
2023/06/08 07:26:46;;;;;;;;;;;;;;;;;;5147606;27;20553;-64
2023/06/08 07:29:12;;;;;;;;;;;;;;;;;;5148233;27;20003;-64
2023/06/08 07:31:39;;;;;;;;;;;;;;;;;;5147683;27;19917;-63
2023/06/08 07:38:03;;;;;;;;;;;;;;;;;;5089505;27;19913;-63
2023/06/08 07:41:21;;;;;;;;;;;;;;;;;;5089353;27;19977;-65
2023/06/08 07:43:46;;;;;;;;;;;;;;;;;;5090595;28;19913;-64
2023/06/08 07:46:12;;;;;;;;;;;;;;;;;;5090138;28;19995;-64
2023/06/08 07:48:38;;;;;;;;;;;;;;;;;;5090617;28;19966;-64
2023/06/08 07:51:40;;;;;;;;;;;;;;;;;;5152330;27;19917;-64
2023/06/08 07:54:06;;;;;;;;;;;;;;;;;;5140465;27;20060;-64
2023/06/08 07:56:32;;;;;;;;;;;;;;;;;;5131234;28;19912;-64
2023/06/08 08:00:12;;;;;;;;;;;;;;;;;;5109963;27;19922;-66
2023/06/08 08:02:38;;;;;;;;;;;;;;;;;;5110300;28;20368;-65
2023/06/08 08:05:04;;;;;;;;;;;;;;;;;;5110929;28;20102;-65
2023/06/08 08:07:30;;;;;;;;;;;;;;;;;;5110785;28;19948;-65
2023/06/08 08:10:25;;;;;;;;;;;;;;;;;;5090162;27;19916;-65
2023/06/08 08:12:52;;;;;;;;;;;;;;;;;;5090547;28;19912;-65
2023/06/08 08:15:18;;;;;;;;;;;;;;;;;;5088445;28;19908;-65
2023/06/08 08:20:10;;;;;;;;;;;;;;;;;;5086990;27;19923;-65
2023/06/08 08:22:36;;;;;;;;;;;;;;;;;;5084449;28;19912;-65
2023/06/08 08:25:02;;;;;;;;;;;;;;;;;;5069945;28;20384;-64
2023/06/08 08:27:28;;;;;;;;;;;;;;;;;;5066927;28;19966;-65
2023/06/08 08:29:54;;;;;;;;;;;;;;;;;;5066543;28;19909;-65
2023/06/08 08:32:20;;;;;;;;;;;;;;;;;;5066511;28;19916;-65
2023/06/08 08:34:46;;;;;;;;;;;;;;;;;;5085001;28;19913;-64
2023/06/08 08:37:13;;;;;;;;;;;;;;;;;;5083757;28;19943;-64
2023/06/08 08:39:39;;;;;;;;;;;;;;;;;;5086981;28;20376;-64
2023/06/08 08:42:05;;;;;;;;;;;;;;;;;;5089468;28;19914;-63
2023/06/08 08:44:32;;;;;;;;;;;;;;;;;;5074284;28;20319;-64
2023/06/08 08:47:02;;;;;;;;;;;;;;;;;;5068463;28;19920;-63
2023/06/08 08:49:28;;;;;;;;;;;;;;;;;;5083766;28;19915;-64
2023/06/08 08:51:54;;;;;;;;;;;;;;;;;;5089690;28;19966;-63
2023/06/08 08:54:31;;;;;;;;;;;;;;;;;;5087413;28;19912;-64
2023/06/08 08:56:57;;;;;;;;;;;;;;;;;;5086584;28;19912;-63
2023/06/08 08:59:23;;;;;;;;;;;;;;;;;;5085922;28;20455;-64
2023/06/08 09:01:49;;;;;;;;;;;;;;;;;;5085199;28;19963;-63
2023/06/08 09:04:15;;;;;;;;;;;;;;;;;;5085316;28;19915;-64
2023/06/08 09:06:41;;;;;;;;;;;;;;;;;;5078726;28;19908;-65
2023/06/08 09:09:06;;;;;;;;;;;;;;;;;;5086047;28;19963;-63
2023/06/08 09:11:34;;;;;;;;;;;;;;;;;;5079931;28;20269;-65
2023/06/08 09:14:00;;;;;;;;;;;;;;;;;;5085109;28;19913;-65
2023/06/08 09:16:26;;;;;;;;;;;;;;;;;;5087397;28;20455;-64
2023/06/08 09:18:52;;;;;;;;;;;;;;;;;;5085797;28;20566;-64
2023/06/08 09:21:18;;;;;;;;;;;;;;;;;;5088078;28;19913;-64
2023/06/08 09:23:44;;;;;;;;;;;;;;;;;;5083688;28;19920;-65
2023/06/08 09:26:10;;;;;;;;;;;;;;;;;;5085976;28;19955;-65
2023/06/08 09:28:37;;;;;;;;;;;;;;;;;;5084042;28;19915;-65
2023/06/08 09:31:03;;;;;;;;;;;;;;;;;;5072175;28;19917;-64
2023/06/08 09:33:33;;;;;;;;;;;;;;;;;;5069931;28;19909;-63
2023/06/08 09:35:59;;;;;;;;;;;;;;;;;;5072440;28;19915;-66
2023/06/08 09:38:26;;;;;;;;;;;;;;;;;;5062055;28;20565;-65
2023/06/08 09:40:52;;;;;;;;;;;;;;;;;;5065548;28;19915;-64
2023/06/08 09:43:18;;;;;;;;;;;;;;;;;;5071794;28;19916;-63
2023/06/08 09:45:45;;;;;;;;;;;;;;;;;;5063675;28;19940;-64
2023/06/08 09:48:11;;;;;;;;;;;;;;;;;;5069920;28;20003;-66
2023/06/08 09:50:37;;;;;;;;;;;;;;;;;;5071257;28;19909;-65
2023/06/08 09:53:03;;;;;;;;;;;;;;;;;;5071642;28;20440;-65
2023/06/08 09:55:29;;;;;;;;;;;;;;;;;;5073073;28;20343;-65
2023/06/08 09:57:55;;;;;;;;;;;;;;;;;;5067862;28;20555;-65
2023/06/08 10:00:23;;;;;;;;;;;;;;;;;;5071038;28;19920;-65
2023/06/08 10:02:49;;;;;;;;;;;;;;;;;;5073023;28;19912;-65
2023/06/08 10:05:15;;;;;;;;;;;;;;;;;;5070316;28;19928;-65
2023/06/08 10:07:41;;;;;;;;;;;;;;;;;;5066062;28;20387;-65
2023/06/08 10:10:07;;;;;;;;;;;;;;;;;;5068734;28;19908;-66
2023/06/08 10:12:33;;;;;;;;;;;;;;;;;;5067599;28;19924;-65
2023/06/08 10:14:59;;;;;;;;;;;;;;;;;;5065794;28;19920;-64
2023/06/08 10:17:25;;;;;;;;;;;;;;;;;;5068735;28;19916;-64
2023/06/08 10:19:51;;;;;;;;;;;;;;;;;;5070037;28;19927;-64
2023/06/08 10:22:17;;;;;;;;;;;;;;;;;;5071632;28;20327;-64
2023/06/08 10:24:43;;;;;;;;;;;;;;;;;;5073802;28;19915;-65
2023/06/08 10:27:10;;;;;;;;;;;;;;;;;;5073946;28;20056;-66
2023/06/08 10:29:36;;;;;;;;;;;;;;;;;;5072527;28;19908;-64
2023/06/08 10:32:02;;;;;;;;;;;;;;;;;;5073062;28;20391;-65
2023/06/08 10:34:28;;;;;;;;;;;;;;;;;;5070948;28;19931;-65
2023/06/08 10:36:54;;;;;;;;;;;;;;;;;;5070350;28;19934;-64
2023/06/08 10:39:21;;;;;;;;;;;;;;;;;;5072834;28;19917;-64
2023/06/08 10:41:47;;;;;;;;;;;;;;;;;;5070454;28;20415;-63
2023/06/08 10:44:13;;;;;;;;;;;;;;;;;;5068591;28;19909;-64
2023/06/08 10:46:39;;;;;;;;;;;;;;;;;;5066205;28;19908;-66
2023/06/08 10:49:05;;;;;;;;;;;;;;;;;;5052566;28;20015;-67
2023/06/08 10:51:30;;;;;;;;;;;;;;;;;;5054015;28;19913;-68
2023/06/08 10:53:56;;;;;;;;;;;;;;;;;;5053170;28;20365;-68
2023/06/08 10:56:22;;;;;;;;;;;;;;;;;;5062038;28;20422;-68
2023/06/08 10:58:48;;;;;;;;;;;;;;;;;;5073336;28;20385;-69
2023/06/08 11:01:15;;;;;;;;;;;;;;;;;;5073760;28;19935;-69
2023/06/08 11:03:41;;;;;;;;;;;;;;;;;;5066065;28;20403;-69
2023/06/08 11:06:07;;;;;;;;;;;;;;;;;;5053328;28;19911;-69
2023/06/08 11:08:33;;;;;;;;;;;;;;;;;;5050654;28;19986;-69
2023/06/08 11:10:58;;;;;;;;;;;;;;;;;;5051545;28;19908;-69
2023/06/08 11:13:25;;;;;;;;;;;;;;;;;;5050224;28;20479;-70
2023/06/08 11:15:51;;;;;;;;;;;;;;;;;;5051491;28;19991;-68
2023/06/08 11:18:19;;;;;;;;;;;;;;;;;;5069486;28;20015;-68
2023/06/08 11:20:44;;;;;;;;;;;;;;;;;;5069253;28;20339;-68
2023/06/08 11:23:10;;;;;;;;;;;;;;;;;;5069488;28;20011;-69
2023/06/08 11:25:36;;;;;;;;;;;;;;;;;;5069247;28;19908;-68
2023/06/08 11:28:02;;;;;;;;;;;;;;;;;;5068466;28;19920;-68
2023/06/08 11:30:28;;;;;;;;;;;;;;;;;;5069319;28;19919;-68
2023/06/08 11:32:54;;;;;;;;;;;;;;;;;;5070342;28;19991;-68
2023/06/08 11:35:23;;;;;;;;;;;;;;;;;;5071632;28;19999;-69
2023/06/08 11:37:49;;;;;;;;;;;;;;;;;;5069630;28;19908;-69
2023/06/08 11:40:15;;;;;;;;;;;;;;;;;;5067630;28;19954;-68
2023/06/08 11:42:41;;;;;;;;;;;;;;;;;;5072005;28;19916;-68
2023/06/08 11:45:07;;;;;;;;;;;;;;;;;;5071816;28;19908;-68
2023/06/08 11:47:33;;;;;;;;;;;;;;;;;;5071389;28;19931;-68
2023/06/08 11:49:59;;;;;;;;;;;;;;;;;;5071376;28;19908;-68
2023/06/08 11:52:25;;;;;;;;;;;;;;;;;;5072973;28;19908;-68
2023/06/08 11:54:51;;;;;;;;;;;;;;;;;;5073166;28;20380;-68
2023/06/08 11:57:17;;;;;;;;;;;;;;;;;;5073653;28;19915;-67
2023/06/08 11:59:45;;;;;;;;;;;;;;;;;;5073142;28;19916;-67
2023/06/08 12:02:11;;;;;;;;;;;;;;;;;;5073593;28;19955;-68
2023/06/08 12:04:37;;;;;;;;;;;;;;;;;;5072858;28;19931;-68
2023/06/08 12:07:03;;;;;;;;;;;;;;;;;;5071555;28;19962;-68
2023/06/08 12:09:29;;;;;;;;;;;;;;;;;;5072354;28;20365;-68
2023/06/08 12:11:55;;;;;;;;;;;;;;;;;;5071928;28;20303;-68
2023/06/08 12:14:21;;;;;;;;;;;;;;;;;;5072433;28;20327;-68
2023/06/08 12:16:47;;;;;;;;;;;;;;;;;;5073062;28;19912;-68
2023/06/08 12:19:13;;;;;;;;;;;;;;;;;;5072373;28;20299;-68
2023/06/08 12:21:39;;;;;;;;;;;;;;;;;;5071445;28;19913;-68
2023/06/08 12:24:05;;;;;;;;;;;;;;;;;;5072574;28;19996;-68
2023/06/08 12:26:31;;;;;;;;;;;;;;;;;;5072682;28;19948;-68
2023/06/08 12:28:57;;;;;;;;;;;;;;;;;;5072715;28;19909;-68
2023/06/08 12:31:23;;;;;;;;;;;;;;;;;;5072966;28;19916;-68
2023/06/08 12:33:49;;;;;;;;;;;;;;;;;;5072979;28;20318;-68
2023/06/08 12:36:15;;;;;;;;;;;;;;;;;;5072408;28;20284;-68
2023/06/08 12:38:41;;;;;;;;;;;;;;;;;;5071868;28;20272;-68
2023/06/08 12:41:07;;;;;;;;;;;;;;;;;;5072928;28;19931;-68
2023/06/08 12:43:33;;;;;;;;;;;;;;;;;;5072715;28;19908;-68
2023/06/08 12:46:01;;;;;;;;;;;;;;;;;;5072699;28;19909;-68
2023/06/08 12:48:28;;;;;;;;;;;;;;;;;;5073008;28;19909;-68
2023/06/08 12:50:57;;;;;;;;;;;;;;;;;;5066677;28;20527;-68
2023/06/08 12:53:23;;;;;;;;;;;;;;;;;;5068558;28;20003;-68
2023/06/08 12:55:50;;;;;;;;;;;;;;;;;;5068926;28;20047;-69
2023/06/08 12:58:17;;;;;;;;;;;;;;;;;;5069302;28;19919;-70
2023/06/08 13:00:43;;;;;;;;;;;;;;;;;;5069367;28;20287;-70
2023/06/08 13:03:09;;;;;;;;;;;;;;;;;;5068472;28;19915;-70
2023/06/08 13:05:35;;;;;;;;;;;;;;;;;;5072071;28;20222;-71
2023/06/08 13:08:00;;;;;;;;;;;;;;;;;;5075512;28;20438;-70
2023/06/08 13:10:27;;;;;;;;;;;;;;;;;;5074769;28;19908;-70
2023/06/08 13:12:53;;;;;;;;;;;;;;;;;;5073245;28;19912;-70
2023/06/08 13:15:19;;;;;;;;;;;;;;;;;;5075740;28;19909;-70
2023/06/08 13:17:45;;;;;;;;;;;;;;;;;;5075576;28;19909;-68
2023/06/08 13:20:12;;;;;;;;;;;;;;;;;;5076802;28;19966;-71
2023/06/08 13:22:38;;;;;;;;;;;;;;;;;;5076814;28;19916;-70
2023/06/08 13:25:05;;;;;;;;;;;;;;;;;;5076255;28;19908;-70
2023/06/08 13:27:30;;;;;;;;;;;;;;;;;;5076735;28;19912;-70
2023/06/08 13:29:56;;;;;;;;;;;;;;;;;;5076614;28;19915;-71
2023/06/08 13:32:22;;;;;;;;;;;;;;;;;;5076360;28;19908;-70
2023/06/08 13:34:48;;;;;;;;;;;;;;;;;;5076832;28;19935;-71
2023/06/08 13:37:14;;;;;;;;;;;;;;;;;;5076652;28;19908;-70
2023/06/08 13:39:40;;;;;;;;;;;;;;;;;;5075860;28;19927;-70
2023/06/08 13:42:07;;;;;;;;;;;;;;;;;;5076485;28;19916;-70
2023/06/08 13:44:33;;;;;;;;;;;;;;;;;;5076319;28;20449;-71
2023/06/08 13:47:02;;;;;;;;;;;;;;;;;;5075990;28;19912;-70
2023/06/08 13:49:28;;;;;;;;;;;;;;;;;;5076486;28;19916;-71
2023/06/08 13:51:53;;;;;;;;;;;;;;;;;;5075799;28;20007;-70
2023/06/08 13:54:19;;;;;;;;;;;;;;;;;;5076104;28;19913;-70
2023/06/08 13:56:45;;;;;;;;;;;;;;;;;;5076104;28;19909;-70
2023/06/08 13:59:11;;;;;;;;;;;;;;;;;;5075887;28;19917;-70
2023/06/08 14:01:37;;;;;;;;;;;;;;;;;;5076646;28;20280;-70
2023/06/08 14:04:03;;;;;;;;;;;;;;;;;;5074665;28;19960;-70
2023/06/08 14:06:29;;;;;;;;;;;;;;;;;;5075636;28;19912;-70
2023/06/08 14:08:56;;;;;;;;;;;;;;;;;;5076019;28;19908;-70
2023/06/08 14:11:22;;;;;;;;;;;;;;;;;;5075978;28;19916;-70
2023/06/08 14:13:47;;;;;;;;;;;;;;;;;;5075493;28;19908;-70
2023/06/08 14:16:13;;;;;;;;;;;;;;;;;;5076230;28;20319;-69
2023/06/08 14:18:39;;;;;;;;;;;;;;;;;;5075476;28;19943;-69
2023/06/08 14:21:07;;;;;;;;;;;;;;;;;;5075278;28;19909;-69
2023/06/08 14:23:33;;;;;;;;;;;;;;;;;;5075558;28;20008;-70
2023/06/08 14:26:00;;;;;;;;;;;;;;;;;;5075510;28;19948;-70
2023/06/08 14:28:25;;;;;;;;;;;;;;;;;;5075169;28;19909;-70
2023/06/08 14:30:51;;;;;;;;;;;;;;;;;;5074079;28;19962;-70
2023/06/08 14:33:17;;;;;;;;;;;;;;;;;;5075406;28;19909;-70
2023/06/08 14:35:45;;;;;;;;;;;;;;;;;;5075043;28;19909;-70
2023/06/08 14:38:11;;;;;;;;;;;;;;;;;;5073928;28;20405;-70
2023/06/08 14:40:37;;;;;;;;;;;;;;;;;;5073996;28;20291;-71
2023/06/08 14:43:04;;;;;;;;;;;;;;;;;;5074960;28;19917;-71
2023/06/08 14:45:30;;;;;;;;;;;;;;;;;;5075328;28;19974;-70
2023/06/08 14:47:56;;;;;;;;;;;;;;;;;;5074937;28;20360;-71
2023/06/08 14:50:22;;;;;;;;;;;;;;;;;;5073405;28;19908;-70
2023/06/08 14:52:48;;;;;;;;;;;;;;;;;;5074890;28;19915;-70
2023/06/08 14:55:14;;;;;;;;;;;;;;;;;;5074549;28;20325;-70
2023/06/08 14:57:40;;;;;;;;;;;;;;;;;;5074903;28;20338;-70
2023/06/08 15:00:06;;;;;;;;;;;;;;;;;;5074780;28;19959;-70
2023/06/08 15:02:32;;;;;;;;;;;;;;;;;;5074320;28;20451;-70
2023/06/08 15:04:58;;;;;;;;;;;;;;;;;;5073773;28;20311;-70
2023/06/08 15:07:24;;;;;;;;;;;;;;;;;;5075031;28;19915;-70
2023/06/08 15:09:50;;;;;;;;;;;;;;;;;;5074292;28;20428;-70
2023/06/08 15:12:16;;;;;;;;;;;;;;;;;;5074653;28;20284;-70
2023/06/08 15:14:42;;;;;;;;;;;;;;;;;;5074561;28;19916;-70
2023/06/08 15:17:08;;;;;;;;;;;;;;;;;;5074171;28;19914;-70
2023/06/08 15:19:35;;;;;;;;;;;;;;;;;;5074230;28;19924;-70
2023/06/08 15:22:00;;;;;;;;;;;;;;;;;;5074326;28;19919;-69
2023/06/08 15:24:26;;;;;;;;;;;;;;;;;;5073987;28;19909;-69
2023/06/08 15:26:52;;;;;;;;;;;;;;;;;;5074546;28;19915;-70
2023/06/08 15:29:18;;;;;;;;;;;;;;;;;;5073836;28;19916;-69
2023/06/08 15:31:44;;;;;;;;;;;;;;;;;;5073881;28;19912;-70
2023/06/08 15:34:10;;;;;;;;;;;;;;;;;;5074288;28;19916;-70
2023/06/08 15:36:36;;;;;;;;;;;;;;;;;;5074246;28;19909;-70
2023/06/08 15:39:03;;;;;;;;;;;;;;;;;;5073928;28;19917;-70
2023/06/08 15:41:29;;;;;;;;;;;;;;;;;;5074505;28;19959;-69
2023/06/08 15:43:55;;;;;;;;;;;;;;;;;;5074096;28;19908;-69
2023/06/08 15:46:21;;;;;;;;;;;;;;;;;;5073622;28;19943;-70
2023/06/08 15:48:53;;;;;;;;;;;;;;;;;;5072733;28;19908;-70
2023/06/08 15:51:19;;;;;;;;;;;;;;;;;;5074210;28;19946;-69
2023/06/08 15:53:45;;;;;;;;;;;;;;;;;;5073648;28;20276;-69
2023/06/08 15:56:11;;;;;;;;;;;;;;;;;;5073876;28;20292;-70
2023/06/08 15:58:37;;;;;;;;;;;;;;;;;;5073471;28;20297;-70
2023/06/08 16:01:03;;;;;;;;;;;;;;;;;;5073888;28;20387;-70
2023/06/08 16:03:29;;;;;;;;;;;;;;;;;;5073774;28;19931;-70
2023/06/08 16:05:55;;;;;;;;;;;;;;;;;;5073430;28;20391;-70
2023/06/08 16:08:21;;;;;;;;;;;;;;;;;;5074097;28;19908;-70
2023/06/08 16:10:48;;;;;;;;;;;;;;;;;;5073997;28;19916;-70
2023/06/08 16:13:14;;;;;;;;;;;;;;;;;;5073479;28;19982;-69
2023/06/08 16:15:40;;;;;;;;;;;;;;;;;;5073316;28;19912;-69
2023/06/08 16:18:06;;;;;;;;;;;;;;;;;;5073336;28;19920;-69
2023/06/08 16:20:32;;;;;;;;;;;;;;;;;;5072082;28;19916;-69
2023/06/08 16:22:58;;;;;;;;;;;;;;;;;;5073266;28;19916;-70
2023/06/08 16:25:23;;;;;;;;;;;;;;;;;;5073665;28;19908;-70
2023/06/08 16:27:50;;;;;;;;;;;;;;;;;;5073369;28;20384;-70
2023/06/08 16:30:15;;;;;;;;;;;;;;;;;;5073711;28;19955;-70
2023/06/08 16:32:41;;;;;;;;;;;;;;;;;;5073593;28;19916;-69
2023/06/08 16:35:07;;;;;;;;;;;;;;;;;;5073132;28;19931;-69
2023/06/08 16:37:33;;;;;;;;;;;;;;;;;;5073573;28;19913;-69
2023/06/08 16:39:59;;;;;;;;;;;;;;;;;;5072647;28;19956;-69
2023/06/08 16:42:25;;;;;;;;;;;;;;;;;;5077085;28;19915;-70
2023/06/08 16:44:51;;;;;;;;;;;;;;;;;;5077470;28;19909;-70
2023/06/08 16:47:17;;;;;;;;;;;;;;;;;;5077456;28;19908;-70
2023/06/08 16:49:43;;;;;;;;;;;;;;;;;;5077059;28;19915;-70
2023/06/08 16:52:09;;;;;;;;;;;;;;;;;;5077376;28;20330;-70
2023/06/08 16:54:35;;;;;;;;;;;;;;;;;;5077418;28;20283;-70
2023/06/08 16:57:01;;;;;;;;;;;;;;;;;;5076888;28;19909;-70
2023/06/08 16:59:27;;;;;;;;;;;;;;;;;;5075812;28;20373;-71
2023/06/08 17:01:53;;;;;;;;;;;;;;;;;;5077031;28;20368;-71
2023/06/08 17:04:19;;;;;;;;;;;;;;;;;;5075330;28;20443;-71
2023/06/08 17:06:45;;;;;;;;;;;;;;;;;;5077104;28;20391;-70
2023/06/08 17:09:11;;;;;;;;;;;;;;;;;;5076683;28;19909;-68
2023/06/08 17:11:37;;;;;;;;;;;;;;;;;;5076868;28;19908;-69
2023/06/08 17:14:03;;;;;;;;;;;;;;;;;;5076855;28;19915;-69
2023/06/08 17:16:29;;;;;;;;;;;;;;;;;;5072681;28;19915;-67
2023/06/08 17:18:55;;;;;;;;;;;;;;;;;;5073813;28;19950;-67
2023/06/08 17:21:21;;;;;;;;;;;;;;;;;;5076220;28;19908;-66
2023/06/08 17:23:47;;;;;;;;;;;;;;;;;;5075201;28;20026;-67
2023/06/08 17:26:13;;;;;;;;;;;;;;;;;;5075572;28;20372;-68
2023/06/08 17:28:39;;;;;;;;;;;;;;;;;;5075514;28;19958;-68
2023/06/08 17:31:05;;;;;;;;;;;;;;;;;;5075483;28;19913;-69
2023/06/08 17:33:31;;;;;;;;;;;;;;;;;;5076040;28;19919;-69
2023/06/08 17:35:57;;;;;;;;;;;;;;;;;;5074897;28;19923;-70
2023/06/08 17:38:23;;;;;;;;;;;;;;;;;;5075465;28;19920;-70
2023/06/08 17:40:49;;;;;;;;;;;;;;;;;;5074141;28;19944;-69
2023/06/08 17:43:15;;;;;;;;;;;;;;;;;;5074607;28;19919;-68
2023/06/08 17:45:41;;;;;;;;;;;;;;;;;;5075258;28;19958;-68
2023/06/08 17:48:07;;;;;;;;;;;;;;;;;;5075952;28;19912;-68
2023/06/08 17:50:33;;;;;;;;;;;;;;;;;;5075013;28;20263;-69
2023/06/08 17:52:59;;;;;;;;;;;;;;;;;;5073905;28;19916;-69
2023/06/08 17:55:26;;;;;;;;;;;;;;;;;;5075823;28;19908;-69
2023/06/08 17:57:52;;;;;;;;;;;;;;;;;;5075606;28;19913;-70
2023/06/08 18:00:18;;;;;;;;;;;;;;;;;;5075111;28;20304;-69
2023/06/08 18:02:44;;;;;;;;;;;;;;;;;;5074926;28;20284;-70
2023/06/08 18:05:10;;;;;;;;;;;;;;;;;;5075044;28;20523;-69
2023/06/08 18:07:36;;;;;;;;;;;;;;;;;;5075309;28;19912;-69
2023/06/08 18:10:02;;;;;;;;;;;;;;;;;;5074824;28;20369;-69
2023/06/08 18:12:28;;;;;;;;;;;;;;;;;;5074904;28;19913;-67
2023/06/08 18:14:54;;;;;;;;;;;;;;;;;;5074686;28;20332;-68
2023/06/08 18:17:20;;;;;;;;;;;;;;;;;;5073711;28;19916;-68
2023/06/08 18:19:46;;;;;;;;;;;;;;;;;;5073483;28;19985;-66
2023/06/08 18:22:12;;;;;;;;;;;;;;;;;;5074847;28;19912;-67
2023/06/08 18:24:38;;;;;;;;;;;;;;;;;;5073366;28;19913;-68
2023/06/08 18:27:05;;;;;;;;;;;;;;;;;;5073665;28;20376;-68
2023/06/08 18:29:31;;;;;;;;;;;;;;;;;;5075331;28;19908;-68
2023/06/08 18:31:57;;;;;;;;;;;;;;;;;;5075038;28;20371;-69
2023/06/08 18:34:25;;;;;;;;;;;;;;;;;;5074278;28;20360;-70
2023/06/08 18:36:51;;;;;;;;;;;;;;;;;;5074542;28;20280;-70